createdAt,value
2022-08-05T00:00:46.725Z,27.98
2022-08-05T00:03:17.382Z,27.77
2022-08-05T00:06:05.770Z,27.85
2022-08-05T00:08:35.113Z,27.56
2022-08-05T00:11:05.553Z,27.39
2022-08-05T00:13:53.065Z,27.55
2022-08-05T00:16:20.116Z,27.58
2022-08-05T00:19:04.509Z,27.57
2022-08-05T00:21:31.047Z,27.58
2022-08-05T00:24:09.926Z,27.34
2022-08-05T00:26:37.407Z,27.39
2022-08-05T00:29:03.959Z,27.53
2022-08-05T00:31:41.447Z,27.17
2022-08-05T00:34:54.485Z,27.33
2022-08-05T00:37:13.280Z,27.52
2022-08-05T00:39:57.509Z,27.65
2022-08-05T00:42:33.824Z,27.25
2022-08-05T00:45:01.151Z,27.29
2022-08-05T00:47:52.966Z,26.71
2022-08-05T00:50:14.691Z,26.95
2022-08-05T00:52:41.755Z,27.39
2022-08-05T00:55:12.442Z,27.24
2022-08-05T00:57:58.674Z,27.54
2022-08-05T01:00:27.698Z,27.56
2022-08-05T01:02:55.082Z,27.39
2022-08-05T01:05:21.995Z,27.35
2022-08-05T01:08:40.997Z,27.07
2022-08-05T01:10:56.090Z,26.83
2022-08-05T01:13:58.494Z,26.87
2022-08-05T01:16:53.446Z,26.60
2022-08-05T01:19:36.684Z,26.41
2022-08-05T01:22:45.325Z,26.50
2022-08-05T01:25:39.972Z,26.43
2022-08-05T01:28:23.413Z,26.20
2022-08-05T01:31:13.119Z,26.34
2022-08-05T01:33:49.234Z,26.22
2022-08-05T01:36:20.972Z,26.53
2022-08-05T01:38:49.886Z,26.58
2022-08-05T01:41:21.603Z,27.09
2022-08-05T01:43:51.073Z,27.18
2022-08-05T01:46:43.012Z,26.99
2022-08-05T01:49:23.181Z,27.90
2022-08-05T01:51:54.047Z,27.95
2022-08-05T01:54:25.544Z,27.35
2022-08-05T01:58:09.313Z,26.98
2022-08-05T01:59:47.039Z,27.37
2022-08-05T02:02:15.807Z,27.87
2022-08-05T02:04:46.279Z,28.41
2022-08-05T02:07:22.143Z,28.37
2022-08-05T02:09:50.897Z,27.97
2022-08-05T02:12:53.356Z,28.23
2022-08-05T02:15:31.199Z,27.66
2022-08-05T02:18:31.341Z,27.41
2022-08-05T02:21:06.457Z,27.39
2022-08-05T02:23:48.511Z,27.03
2022-08-05T02:26:22.041Z,26.69
2022-08-05T02:28:49.856Z,26.58
2022-08-05T02:31:26.801Z,26.79
2022-08-05T02:33:59.375Z,25.85
2022-08-05T02:36:31.157Z,26.32
2022-08-05T02:39:00.004Z,26.52
2022-08-05T02:41:42.914Z,26.77
2022-08-05T02:44:16.027Z,27.12
2022-08-05T02:46:58.702Z,27.38
2022-08-05T02:49:35.833Z,27.44
2022-08-05T02:52:04.834Z,27.63
2022-08-05T02:54:36.109Z,27.67
2022-08-05T02:57:10.304Z,27.54
2022-08-05T02:59:55.121Z,27.81
2022-08-05T03:02:27.425Z,27.75
2022-08-05T03:04:57.195Z,27.84
2022-08-05T03:08:01.089Z,27.78
2022-08-05T03:10:15.749Z,28.33
2022-08-05T03:12:51.905Z,28.61
2022-08-05T03:15:20.430Z,28.66
2022-08-05T03:17:46.970Z,28.94
2022-08-05T03:20:13.827Z,29.10
2022-08-05T03:22:44.271Z,29.16
2022-08-05T03:25:33.266Z,29.15
2022-08-05T03:28:08.253Z,28.93
2022-08-05T03:30:36.618Z,29.14
2022-08-05T03:33:05.800Z,29.12
2022-08-05T03:35:33.976Z,29.17
2022-08-05T03:38:07.262Z,28.64
2022-08-05T03:40:34.249Z,28.87
2022-08-05T03:43:58.814Z,29.16
2022-08-05T03:45:55.192Z,29.00
2022-08-05T03:48:27.439Z,29.00
2022-08-05T03:52:34.712Z,28.90
2022-08-05T03:55:50.442Z,28.78
2022-08-05T03:56:47.526Z,28.75
2022-08-05T03:59:29.210Z,28.57
2022-08-05T04:02:17.542Z,28.45
2022-08-05T04:05:04.193Z,28.50
2022-08-05T04:07:57.324Z,28.38
2022-08-05T04:10:32.038Z,28.34
2022-08-05T04:13:04.619Z,28.08
2022-08-05T04:15:32.836Z,28.01
2022-08-05T04:18:07.897Z,28.10
2022-08-05T04:20:37.062Z,27.84
2022-08-05T04:23:04.023Z,27.94
2022-08-05T04:25:57.460Z,27.94
2022-08-05T04:28:17.842Z,27.78
2022-08-05T04:30:45.358Z,27.88
2022-08-05T04:33:12.727Z,27.94
2022-08-05T04:36:10.879Z,27.97
2022-08-05T04:38:39.812Z,28.05
2022-08-05T04:41:09.377Z,28.19
2022-08-05T04:43:46.676Z,28.32
2022-08-05T04:46:27.789Z,28.43
2022-08-05T04:48:57.960Z,28.48
2022-08-05T04:51:25.469Z,28.64
2022-08-05T04:53:56.838Z,28.52
2022-08-05T04:56:34.628Z,28.64
2022-08-05T04:59:22.373Z,28.64
2022-08-05T05:02:07.455Z,28.66
2022-08-05T05:04:38.337Z,28.59
2022-08-05T05:07:10.545Z,28.60
2022-08-05T05:09:37.419Z,28.39
2022-08-05T05:12:05.181Z,28.21
2022-08-05T05:14:32.910Z,28.24
2022-08-05T05:17:03.292Z,28.32
2022-08-05T05:19:37.126Z,28.20
2022-08-05T05:22:24.193Z,28.20
2022-08-05T05:24:59.904Z,28.08
2022-08-05T05:27:45.421Z,27.97
2022-08-05T05:30:31.073Z,28.20
2022-08-05T05:33:09.436Z,28.18
2022-08-05T05:35:45.057Z,28.08
2022-08-05T05:38:13.354Z,27.77
2022-08-05T05:40:49.700Z,27.59
2022-08-05T05:43:57.268Z,27.48
2022-08-05T05:46:17.778Z,27.06
2022-08-05T05:48:48.396Z,27.18
2022-08-05T05:51:49.567Z,27.59
2022-08-05T05:54:17.098Z,27.35
2022-08-05T05:56:43.678Z,27.90
2022-08-05T05:59:10.394Z,27.67
2022-08-05T06:01:57.884Z,27.97
2022-08-05T06:04:24.991Z,28.29
2022-08-05T06:06:51.750Z,27.82
2022-08-05T06:09:24.730Z,28.04
2022-08-05T06:11:59.553Z,27.60
2022-08-05T06:14:29.644Z,27.48
2022-08-05T06:16:56.807Z,26.86
2022-08-05T06:19:33.876Z,27.35
2022-08-05T06:22:06.452Z,27.13
2022-08-05T06:24:34.746Z,27.27
2022-08-05T06:27:04.013Z,27.31
2022-08-05T06:29:49.021Z,27.25
2022-08-05T06:32:26.357Z,27.34
2022-08-05T06:34:58.226Z,27.69
2022-08-05T06:37:56.480Z,27.65
2022-08-05T06:40:18.467Z,27.72
2022-08-05T06:42:52.775Z,27.69
2022-08-05T06:45:44.594Z,27.86
2022-08-05T06:48:46.859Z,28.10
2022-08-05T06:50:57.044Z,28.06
2022-08-05T06:53:28.258Z,28.05
2022-08-05T06:55:58.237Z,27.95
2022-08-05T06:58:35.484Z,27.71
2022-08-05T07:01:06.025Z,27.79
2022-08-05T07:03:33.494Z,27.93
2022-08-05T07:06:06.045Z,27.46
2022-08-05T07:08:47.561Z,27.68
2022-08-05T07:11:15.884Z,27.98
2022-08-05T07:14:02.116Z,28.14
2022-08-05T07:17:59.526Z,28.16
2022-08-05T07:22:28.154Z,28.11
2022-08-05T07:24:58.356Z,27.97
2022-08-05T07:27:27.723Z,28.04
2022-08-05T07:30:28.172Z,28.23
2022-08-05T07:32:57.751Z,28.51
2022-08-05T07:36:02.709Z,28.63
2022-08-05T07:38:12.127Z,28.85
2022-08-05T07:40:39.175Z,28.76
2022-08-05T07:43:20.257Z,28.71
2022-08-05T07:45:56.724Z,28.65
2022-08-05T07:49:01.005Z,28.69
2022-08-05T07:51:23.369Z,28.23
2022-08-05T07:53:58.997Z,27.86
2022-08-05T07:56:59.930Z,28.16
2022-08-05T07:59:15.604Z,28.81
2022-08-05T08:01:52.047Z,28.65
2022-08-05T08:04:37.307Z,28.37
2022-08-05T08:07:07.412Z,28.75
2022-08-05T08:09:34.990Z,28.25
2022-08-05T08:12:07.764Z,28.29
2022-08-05T08:14:42.746Z,28.52
2022-08-05T08:17:15.955Z,28.57
2022-08-05T08:20:43.013Z,28.37
2022-08-05T08:22:32.241Z,28.66
2022-08-05T08:25:03.367Z,28.47
2022-08-05T08:27:40.445Z,28.71
2022-08-05T08:30:19.070Z,28.39
2022-08-05T08:32:53.874Z,28.45
2022-08-05T08:35:20.887Z,28.29
2022-08-05T08:37:53.639Z,28.32
2022-08-05T08:40:23.866Z,28.42
2022-08-05T08:42:53.415Z,28.29
2022-08-05T08:45:27.198Z,28.30
2022-08-05T08:48:11.767Z,27.63
2022-08-05T08:51:07.560Z,27.83
2022-08-05T08:53:35.341Z,28.20
2022-08-05T08:56:06.092Z,28.35
2022-08-05T08:58:43.475Z,28.22
2022-08-05T09:01:16.483Z,28.37
2022-08-05T09:03:47.468Z,28.25
2022-08-05T09:06:18.623Z,28.44
2022-08-05T09:08:47.865Z,28.44
2022-08-05T09:11:15.293Z,28.59
2022-08-05T09:14:09.089Z,28.31
2022-08-05T09:16:29.731Z,28.31
2022-08-05T09:18:56.423Z,28.45
2022-08-05T09:22:22.997Z,28.34
2022-08-05T09:24:15.635Z,28.36
2022-08-05T09:26:46.143Z,28.34
2022-08-05T09:29:16.299Z,28.00
2022-08-05T09:32:41.178Z,28.08
2022-08-05T09:34:55.951Z,28.32
2022-08-05T09:38:16.594Z,28.30
2022-08-05T09:40:32.579Z,27.72
2022-08-05T09:43:01.111Z,27.82
2022-08-05T09:46:07.853Z,28.07
2022-08-05T09:48:31.305Z,27.98
2022-08-05T09:51:01.159Z,28.31
2022-08-05T09:53:53.122Z,28.41
2022-08-05T09:56:25.976Z,28.88
2022-08-05T09:58:57.305Z,28.76
2022-08-05T10:01:31.841Z,28.13
2022-08-05T10:04:10.671Z,28.35
2022-08-05T10:06:54.622Z,28.08
2022-08-05T10:09:27.255Z,27.41
2022-08-05T10:12:31.403Z,27.60
2022-08-05T10:15:13.889Z,27.98
2022-08-05T10:17:47.426Z,27.86
2022-08-05T10:20:23.796Z,27.80
2022-08-05T10:22:52.343Z,27.99
2022-08-05T10:25:19.484Z,28.48
2022-08-05T10:28:13.774Z,27.91
2022-08-05T10:31:20.945Z,28.10
2022-08-05T10:33:25.572Z,27.69
2022-08-05T10:35:59.185Z,27.82
2022-08-05T10:38:28.537Z,28.03
2022-08-05T10:41:23.203Z,27.91
2022-08-05T10:44:01.633Z,28.20
2022-08-05T10:46:46.942Z,28.58
2022-08-05T10:49:18.654Z,28.76
2022-08-05T10:52:00.458Z,28.36
2022-08-05T10:55:02.911Z,28.12
2022-08-05T10:57:34.028Z,28.42
2022-08-05T11:00:20.407Z,28.12
2022-08-05T11:02:59.141Z,28.57
2022-08-05T11:06:03.786Z,28.86
2022-08-05T11:08:38.161Z,29.11
2022-08-05T11:11:44.403Z,29.04
2022-08-05T11:14:13.023Z,29.09
2022-08-05T11:16:56.134Z,28.78
2022-08-05T11:20:11.182Z,29.00
2022-08-05T11:22:50.066Z,29.54
2022-08-05T11:26:04.382Z,29.67
2022-08-05T11:28:18.906Z,29.33
2022-08-05T11:30:58.285Z,29.62
2022-08-05T11:33:48.375Z,29.89
2022-08-05T11:36:33.914Z,29.97
2022-08-05T11:39:01.596Z,30.03
2022-08-05T11:41:56.477Z,30.19
2022-08-05T11:44:40.139Z,29.97
2022-08-05T11:47:14.224Z,29.25
2022-08-05T11:49:50.974Z,29.32
2022-08-05T11:52:29.022Z,29.49
2022-08-05T11:54:58.094Z,29.23
2022-08-05T11:57:30.647Z,29.03
2022-08-05T12:00:27.570Z,28.88
2022-08-05T12:02:56.566Z,28.98
2022-08-05T12:05:36.164Z,29.31
2022-08-05T12:08:10.804Z,29.51
2022-08-05T12:10:45.147Z,29.76
2022-08-05T12:13:16.748Z,29.70
2022-08-05T12:15:45.425Z,29.46
2022-08-05T12:18:20.586Z,29.59
2022-08-05T12:20:50.775Z,29.62
2022-08-05T12:23:17.331Z,29.53
2022-08-05T12:25:56.851Z,29.54
2022-08-05T12:28:34.691Z,29.65
2022-08-05T12:31:03.919Z,29.71
2022-08-05T12:33:36.759Z,29.65
2022-08-05T12:36:08.259Z,30.11
2022-08-05T12:38:39.709Z,30.10
2022-08-05T12:41:13.083Z,30.45
2022-08-05T12:43:58.700Z,30.51
2022-08-05T12:46:32.734Z,30.71
2022-08-05T12:49:13.480Z,30.90
2022-08-05T12:52:12.755Z,30.85
2022-08-05T12:54:37.151Z,31.11
2022-08-05T12:57:09.182Z,31.35
2022-08-05T13:01:57.958Z,31.35
2022-08-05T13:02:40.832Z,31.72
2022-08-05T13:05:12.486Z,31.80
2022-08-05T13:08:00.590Z,31.75
2022-08-05T13:10:30.986Z,31.57
2022-08-05T13:12:58.436Z,32.01
2022-08-05T13:15:35.883Z,32.16
2022-08-05T13:18:19.607Z,32.26
2022-08-05T13:20:49.223Z,32.31
2022-08-05T13:23:18.025Z,32.49
2022-08-05T13:25:52.365Z,33.03
2022-08-05T13:28:27.626Z,32.95
2022-08-05T13:30:54.196Z,32.73
2022-08-05T13:34:22.766Z,32.66
2022-08-05T13:36:09.105Z,32.68
2022-08-05T13:38:42.369Z,32.86
2022-08-05T13:41:11.279Z,32.94
2022-08-05T13:43:44.246Z,33.10
2022-08-05T13:46:13.164Z,33.37
2022-08-05T13:48:57.244Z,33.74
2022-08-05T13:51:29.314Z,33.59
2022-08-05T13:54:03.407Z,33.27
2022-08-05T13:56:45.228Z,33.57
2022-08-05T13:59:21.402Z,33.99
2022-08-05T14:01:58.747Z,34.13
2022-08-05T14:04:51.473Z,33.97
2022-08-05T14:07:55.503Z,33.82
2022-08-05T14:10:13.422Z,33.73
2022-08-05T14:12:42.727Z,33.21
2022-08-05T14:16:06.275Z,33.06
2022-08-05T14:17:59.479Z,32.96
2022-08-05T14:20:27.654Z,32.19
2022-08-05T14:22:54.675Z,32.60
2022-08-05T14:25:22.765Z,32.92
2022-08-05T14:27:55.667Z,32.51
2022-08-05T14:30:22.641Z,32.52
2022-08-05T14:32:52.954Z,32.98
2022-08-05T14:35:20.755Z,32.93
2022-08-05T14:37:53.591Z,32.93
2022-08-05T14:40:24.563Z,32.62
2022-08-05T14:42:51.817Z,33.01
2022-08-05T14:45:18.838Z,33.07
2022-08-05T14:48:03.183Z,32.89
2022-08-05T14:50:33.468Z,33.03
2022-08-05T14:53:06.733Z,32.17
2022-08-05T14:55:39.008Z,32.57
2022-08-05T14:58:10.841Z,32.97
2022-08-05T15:00:57.899Z,33.14
2022-08-05T15:03:26.126Z,33.17
2022-08-05T15:06:07.591Z,33.31
2022-08-05T15:09:01.059Z,32.27
2022-08-05T15:11:52.831Z,31.97
2022-08-05T15:14:33.396Z,32.27
2022-08-05T15:16:59.621Z,32.15
2022-08-05T15:19:26.521Z,32.31
2022-08-05T15:21:53.274Z,31.81
2022-08-05T15:24:24.832Z,31.56
2022-08-05T15:26:51.373Z,31.98
2022-08-05T15:29:18.513Z,31.63
2022-08-05T15:31:49.750Z,31.33
2022-08-05T15:34:32.141Z,30.90
2022-08-05T15:37:03.489Z,31.49
2022-08-05T15:41:03.016Z,31.39
2022-08-05T15:42:50.301Z,30.97
2022-08-05T15:45:09.876Z,30.04
2022-08-05T15:47:37.146Z,30.41
2022-08-05T15:50:07.256Z,30.38
2022-08-05T15:52:53.774Z,30.54
2022-08-05T15:55:24.501Z,30.52
2022-08-05T15:57:52.130Z,30.87
2022-08-05T16:00:26.229Z,31.43
2022-08-05T16:03:00.461Z,30.92
2022-08-05T16:05:28.156Z,30.52
2022-08-05T16:07:55.179Z,30.07
2022-08-05T16:10:25.615Z,30.23
2022-08-05T16:12:53.772Z,30.45
2022-08-05T16:15:23.468Z,30.62
2022-08-05T16:17:57.725Z,30.26
2022-08-05T16:20:25.355Z,29.98
2022-08-05T16:22:51.914Z,29.53
2022-08-05T16:25:18.739Z,29.40
2022-08-05T16:28:00.744Z,29.86
2022-08-05T16:30:33.385Z,29.79
2022-08-05T16:33:00.951Z,29.78
2022-08-05T16:35:32.443Z,30.07
2022-08-05T16:38:14.919Z,29.83
2022-08-05T16:40:47.876Z,29.84
2022-08-05T16:43:24.037Z,29.91
2022-08-05T16:46:03.790Z,29.54
2022-08-05T16:48:36.232Z,29.28
2022-08-05T16:51:08.806Z,29.31
2022-08-05T16:54:05.063Z,29.15
2022-08-05T16:56:26.111Z,28.46
2022-08-05T16:58:52.734Z,28.68
2022-08-05T17:01:20.100Z,27.89
2022-08-05T17:03:47.359Z,28.16
2022-08-05T17:06:16.527Z,27.87
2022-08-05T17:08:53.881Z,27.93
2022-08-05T17:11:23.833Z,27.71
2022-08-05T17:14:00.237Z,27.31
2022-08-05T17:16:36.533Z,27.42
2022-08-05T17:19:07.768Z,26.94
2022-08-05T17:21:37.759Z,26.62
2022-08-05T17:24:28.038Z,26.97
2022-08-05T17:26:56.255Z,26.60
2022-08-05T17:29:33.682Z,26.67
2022-08-05T17:32:17.297Z,26.66
2022-08-05T17:34:47.531Z,26.74
2022-08-05T17:37:39.377Z,26.77
2022-08-05T17:40:05.979Z,26.60
2022-08-05T17:42:41.591Z,26.71
2022-08-05T17:45:20.287Z,26.57
2022-08-05T17:47:52.915Z,26.27
2022-08-05T17:50:27.605Z,26.75
2022-08-05T17:52:56.155Z,26.66
2022-08-05T17:55:27.392Z,26.63
2022-08-05T17:58:02.180Z,26.36
2022-08-05T18:00:29.355Z,26.77
2022-08-05T18:02:56.226Z,26.27
2022-08-05T18:05:23.820Z,26.34
2022-08-05T18:07:55.218Z,25.93
2022-08-05T18:10:23.515Z,26.07
2022-08-05T18:12:50.102Z,26.02
2022-08-05T18:15:16.693Z,26.09
2022-08-05T18:18:00.240Z,26.34
2022-08-05T18:20:32.115Z,26.62
2022-08-05T18:23:11.432Z,26.42
2022-08-05T18:25:44.830Z,25.98
2022-08-05T18:28:12.310Z,25.60
2022-08-05T18:30:50.925Z,25.50
2022-08-05T18:33:22.513Z,25.64
2022-08-05T18:36:03.629Z,26.10
2022-08-05T18:38:36.553Z,26.08
2022-08-05T18:41:54.958Z,25.75
2022-08-05T18:43:51.843Z,26.10
2022-08-05T18:46:20.194Z,25.88
2022-08-05T18:48:52.678Z,26.06
2022-08-05T18:52:04.358Z,26.49
2022-08-05T18:54:28.418Z,26.26
2022-08-05T18:57:01.727Z,25.82
2022-08-05T18:59:44.357Z,26.02
2022-08-05T19:02:28.183Z,26.06
2022-08-05T19:05:03.221Z,26.18
2022-08-05T19:07:45.557Z,26.14
2022-08-05T19:10:18.663Z,26.21
2022-08-05T19:12:53.259Z,25.61
2022-08-05T19:15:57.468Z,25.43
2022-08-05T19:18:09.365Z,25.24
2022-08-05T19:20:41.440Z,25.60
2022-08-05T19:24:03.843Z,25.57
2022-08-05T19:26:02.203Z,25.42
2022-08-05T19:28:33.614Z,25.55
2022-08-05T19:31:01.095Z,25.30
2022-08-05T19:33:35.923Z,25.27
2022-08-05T19:36:07.082Z,25.59
2022-08-05T19:38:35.562Z,25.58
2022-08-05T19:41:07.080Z,25.65
2022-08-05T19:44:06.580Z,25.83
2022-08-05T19:46:29.251Z,25.78
2022-08-05T19:49:00.845Z,25.85
2022-08-05T19:52:09.260Z,25.70
2022-08-05T19:54:25.381Z,25.75
2022-08-05T19:56:58.482Z,25.57
2022-08-05T20:00:00.784Z,25.55
2022-08-05T20:02:12.635Z,25.61
2022-08-05T20:04:42.879Z,25.50
2022-08-05T20:07:10.435Z,25.44
2022-08-05T20:09:54.361Z,25.48
2022-08-05T20:12:24.086Z,25.42
2022-08-05T20:14:52.866Z,25.29
2022-08-05T20:17:23.276Z,25.12
2022-08-05T20:19:56.723Z,25.26
2022-08-05T20:22:26.780Z,25.15
2022-08-05T20:24:55.289Z,25.13
2022-08-05T20:27:26.408Z,25.11
2022-08-05T20:29:58.236Z,25.12
2022-08-05T20:32:27.436Z,24.86
2022-08-05T20:34:54.646Z,24.83
2022-08-05T20:38:04.573Z,24.88
2022-08-05T20:40:08.899Z,24.86
2022-08-05T20:42:35.671Z,24.79
2022-08-05T20:45:03.392Z,24.66
2022-08-05T20:47:31.796Z,24.55
2022-08-05T20:49:59.529Z,24.38
2022-08-05T20:52:28.443Z,24.27
2022-08-05T20:55:15.925Z,24.41
2022-08-05T20:57:44.521Z,24.27
2022-08-05T21:00:40.502Z,24.25
2022-08-05T21:03:07.169Z,24.11
2022-08-05T21:05:48.392Z,23.97
2022-08-05T21:08:21.076Z,23.89
2022-08-05T21:10:53.625Z,23.88
2022-08-05T21:13:26.354Z,23.91
2022-08-05T21:16:07.329Z,23.93
2022-08-05T21:18:34.285Z,23.86
2022-08-05T21:21:02.586Z,23.82
2022-08-05T21:23:29.132Z,23.80
2022-08-05T21:26:04.200Z,23.77
2022-08-05T21:28:40.103Z,23.85
2022-08-05T21:31:14.291Z,23.69
2022-08-05T21:33:43.216Z,23.72
2022-08-05T21:36:14.154Z,23.62
2022-08-05T21:38:54.763Z,23.62
2022-08-05T21:41:21.733Z,23.61
2022-08-05T21:43:50.707Z,23.65
2022-08-05T21:46:28.033Z,23.62
2022-08-05T21:48:56.794Z,23.46
2022-08-05T21:52:21.434Z,23.54
2022-08-05T21:54:12.905Z,23.52
2022-08-05T21:56:44.451Z,23.40
2022-08-05T21:59:22.557Z,23.37
2022-08-05T22:01:54.386Z,23.19
2022-08-05T22:04:25.485Z,23.11
2022-08-05T22:06:52.832Z,22.94
2022-08-05T22:09:21.077Z,23.01
2022-08-05T22:11:48.950Z,22.97
2022-08-05T22:14:37.214Z,22.56
2022-08-05T22:17:06.667Z,22.82
2022-08-05T22:20:00.644Z,22.79
2022-08-05T22:22:27.686Z,22.73
2022-08-05T22:25:18.237Z,22.68
2022-08-05T22:28:05.061Z,22.66
2022-08-05T22:30:56.439Z,22.63
2022-08-05T22:33:57.694Z,22.62
2022-08-05T22:36:15.431Z,22.43
2022-08-05T22:38:47.927Z,22.54
2022-08-05T22:41:16.585Z,22.50
2022-08-05T22:44:03.210Z,22.36
2022-08-05T22:46:29.757Z,22.28
2022-08-05T22:48:56.567Z,22.21
2022-08-05T22:52:04.311Z,22.32
2022-08-05T22:54:09.850Z,22.21
2022-08-05T22:56:36.424Z,22.15
2022-08-05T22:59:45.803Z,22.05
2022-08-05T23:02:06.271Z,21.98
2022-08-05T23:04:34.722Z,21.87
2022-08-05T23:07:02.988Z,21.92
2022-08-05T23:09:58.256Z,21.80
2022-08-05T23:12:17.908Z,21.82
2022-08-05T23:14:44.630Z,21.81
2022-08-05T23:17:34.568Z,21.66
2022-08-05T23:20:16.290Z,21.86
2022-08-05T23:22:47.606Z,21.89
2022-08-05T23:25:17.067Z,21.87
2022-08-05T23:28:03.741Z,21.88
2022-08-05T23:30:40.515Z,21.88
2022-08-05T23:33:22.593Z,21.86
2022-08-05T23:35:57.515Z,21.83
2022-08-05T23:38:24.446Z,21.76
2022-08-05T23:40:52.618Z,21.67
2022-08-05T23:43:25.369Z,21.70
2022-08-05T23:46:20.395Z,21.67
2022-08-05T23:49:00.866Z,21.73
2022-08-05T23:51:53.496Z,21.73
2022-08-05T23:54:25.167Z,21.71
2022-08-05T23:57:03.849Z,21.64
